createdAt,value
2022-09-07T00:01:24.126Z,99861.56
2022-09-07T00:03:56.670Z,99867.50
2022-09-07T00:06:26.273Z,99871.09
2022-09-07T00:08:54.770Z,99868.63
2022-09-07T00:11:23.657Z,99867.84
2022-09-07T00:13:52.226Z,99866.22
2022-09-07T00:16:23.799Z,99871.75
2022-09-07T00:18:56.238Z,99871.91
2022-09-07T00:21:25.319Z,99878.72
2022-09-07T00:23:54.779Z,99870.66
2022-09-07T00:26:27.418Z,99869.88
2022-09-07T00:28:59.406Z,99857.47
2022-09-07T00:31:31.362Z,99858.50
2022-09-07T00:34:03.002Z,99854.75
2022-09-07T00:36:31.857Z,99858.16
2022-09-07T00:39:00.564Z,99867.50
2022-09-07T00:41:29.102Z,99867.31
2022-09-07T00:44:00.574Z,99865.63
2022-09-07T00:46:31.982Z,99868.88
2022-09-07T00:49:09.487Z,99865.47
2022-09-07T00:51:45.217Z,99855.84
2022-09-07T00:54:19.231Z,99853.06
2022-09-07T00:56:50.759Z,99857.13
2022-09-07T00:59:23.858Z,99850.84
2022-09-07T01:01:53.062Z,99847.28
2022-09-07T01:04:23.976Z,99851.25
2022-09-07T01:06:52.871Z,99844.47
2022-09-07T01:09:24.061Z,99851.44
2022-09-07T01:11:55.046Z,99860.53
2022-09-07T01:14:28.041Z,99890.38
2022-09-07T01:17:05.044Z,99880.59
2022-09-07T01:20:18.109Z,99863.59
2022-09-07T01:23:23.785Z,99868.88
2022-09-07T01:26:17.835Z,99862.41
2022-09-07T01:28:52.980Z,99849.59
2022-09-07T01:31:28.913Z,99859.34
2022-09-07T01:34:07.573Z,99854.06
2022-09-07T01:36:47.994Z,99828.94
2022-09-07T01:39:17.716Z,99838.44
2022-09-07T01:41:54.211Z,99839.63
2022-09-07T01:44:28.528Z,99832.94
2022-09-07T01:47:04.032Z,99821.63
2022-09-07T01:49:43.359Z,99805.22
2022-09-07T01:52:18.347Z,99790.72
2022-09-07T01:54:50.169Z,99789.50
2022-09-07T01:57:27.800Z,99802.94
2022-09-07T02:00:06.343Z,99812.53
2022-09-07T02:02:46.530Z,99810.47
2022-09-07T02:05:20.367Z,99814.66
2022-09-07T02:07:55.250Z,99830.97
2022-09-07T02:10:29.914Z,99845.56
2022-09-07T02:13:03.245Z,99852.22
2022-09-07T02:15:42.918Z,99865.97
2022-09-07T02:18:14.266Z,99895.38
2022-09-07T02:20:49.549Z,99904.72
2022-09-07T02:23:23.182Z,99908.78
2022-09-07T02:25:55.406Z,99907.72
2022-09-07T02:28:29.627Z,99902.13
2022-09-07T02:31:00.228Z,99877.13
2022-09-07T02:33:29.384Z,99888.09
2022-09-07T02:35:58.662Z,99903.13
2022-09-07T02:38:27.650Z,99906.91
2022-09-07T02:40:58.992Z,99935.59
2022-09-07T02:43:28.696Z,99972.31
2022-09-07T02:46:20.363Z,99958.13
2022-09-07T02:49:03.315Z,99951.09
2022-09-07T02:51:42.858Z,99948.63
2022-09-07T02:54:27.371Z,99918.75
2022-09-07T02:57:07.270Z,99909.56
2022-09-07T03:00:01.309Z,99907.53
2022-09-07T03:02:41.555Z,99893.38
2022-09-07T03:05:18.387Z,99881.44
2022-09-07T03:07:54.150Z,99862.41
2022-09-07T03:10:23.474Z,99867.41
2022-09-07T03:12:52.624Z,99874.19
2022-09-07T03:15:24.504Z,99862.13
2022-09-07T03:17:55.071Z,99845.72
2022-09-07T03:20:24.645Z,99834.41
2022-09-07T03:22:54.019Z,99825.47
2022-09-07T03:25:22.866Z,99830.59
2022-09-07T03:27:51.391Z,99820.09
2022-09-07T03:30:20.334Z,99820.38
2022-09-07T03:32:48.921Z,99815.25
2022-09-07T03:35:19.393Z,99808.13
2022-09-07T03:37:47.898Z,99804.31
2022-09-07T03:40:17.506Z,99812.09
2022-09-07T03:42:50.947Z,99806.69
2022-09-07T03:45:19.727Z,99807.78
2022-09-07T03:47:49.232Z,99797.22
2022-09-07T03:50:19.333Z,99791.72
2022-09-07T03:52:47.908Z,99792.53
2022-09-07T03:55:16.587Z,99791.38
2022-09-07T03:57:45.152Z,99809.41
2022-09-07T04:00:16.201Z,99814.91
2022-09-07T04:02:44.832Z,99815.59
2022-09-07T04:05:13.482Z,99819.56
2022-09-07T04:07:43.383Z,99821.47
2022-09-07T04:10:12.131Z,99825.28
2022-09-07T04:12:40.670Z,99816.97
2022-09-07T04:15:10.671Z,99814.19
2022-09-07T04:17:39.711Z,99813.44
2022-09-07T04:20:10.180Z,99813.88
2022-09-07T04:22:38.891Z,99814.16
2022-09-07T04:25:09.762Z,99817.34
2022-09-07T04:27:38.419Z,99818.31
2022-09-07T04:30:08.420Z,99811.13
2022-09-07T04:32:37.130Z,99806.88
2022-09-07T04:35:06.806Z,99815.63
2022-09-07T04:37:35.432Z,99806.72
2022-09-07T04:40:04.786Z,99816.19
2022-09-07T04:42:34.934Z,99823.59
2022-09-07T04:45:03.708Z,99818.06
2022-09-07T04:47:32.925Z,99814.81
2022-09-07T04:50:01.621Z,99824.72
2022-09-07T04:52:30.271Z,99824.09
2022-09-07T04:54:58.908Z,99817.31
2022-09-07T04:57:27.624Z,99818.50
2022-09-07T04:59:57.504Z,99807.44
2022-09-07T05:02:26.251Z,99822.53
2022-09-07T05:04:57.331Z,99824.38
2022-09-07T05:07:28.286Z,99824.38
2022-09-07T05:09:57.324Z,99840.13
2022-09-07T05:12:26.069Z,99836.56
2022-09-07T05:14:55.958Z,99842.81
2022-09-07T05:17:24.614Z,99848.50
2022-09-07T05:19:53.438Z,99846.41
2022-09-07T05:22:22.409Z,99851.75
2022-09-07T05:24:51.024Z,99840.16
2022-09-07T05:27:19.616Z,99840.25
2022-09-07T05:30:04.574Z,99844.28
2022-09-07T05:32:35.778Z,99851.16
2022-09-07T05:35:04.374Z,99850.63
2022-09-07T05:37:32.949Z,99843.59
2022-09-07T05:40:01.461Z,99853.44
2022-09-07T05:42:30.399Z,99856.06
2022-09-07T05:44:59.315Z,99848.19
2022-09-07T05:47:27.895Z,99844.22
2022-09-07T05:49:57.848Z,99857.41
2022-09-07T05:52:26.512Z,99861.66
2022-09-07T05:55:03.217Z,99857.97
2022-09-07T05:57:43.597Z,99861.34
2022-09-07T06:00:14.594Z,99855.25
2022-09-07T06:02:43.139Z,99864.00
2022-09-07T06:05:13.158Z,99860.34
2022-09-07T06:07:42.173Z,99857.50
2022-09-07T06:12:59.573Z,99864.13
2022-09-07T06:15:28.269Z,99860.44
2022-09-07T06:17:56.842Z,99863.06
2022-09-07T06:20:26.963Z,99861.88
2022-09-07T06:22:55.633Z,99862.72
2022-09-07T06:25:24.258Z,99867.66
2022-09-07T06:27:54.064Z,99865.31
2022-09-07T06:30:22.989Z,99863.81
2022-09-07T06:32:51.636Z,99861.19
2022-09-07T06:35:20.189Z,99872.31
2022-09-07T06:37:50.142Z,99871.03
2022-09-07T06:40:18.923Z,99878.31
2022-09-07T06:42:47.472Z,99877.84
2022-09-07T06:45:18.066Z,99887.19
2022-09-07T06:47:46.595Z,99886.59
2022-09-07T06:50:17.636Z,99879.28
2022-09-07T06:55:36.139Z,99877.38
2022-09-07T06:58:04.701Z,99877.78
2022-09-07T07:00:33.403Z,99883.06
2022-09-07T07:03:02.118Z,99880.53
2022-09-07T07:05:31.762Z,99883.91
2022-09-07T07:08:00.742Z,99885.31
2022-09-07T07:10:29.387Z,99890.19
2022-09-07T07:12:59.326Z,99881.44
2022-09-07T07:15:29.741Z,99883.91
2022-09-07T07:18:09.519Z,99884.97
2022-09-07T07:20:47.824Z,99885.53
2022-09-07T07:23:17.229Z,99891.19
2022-09-07T07:25:46.234Z,99884.94
2022-09-07T07:31:10.554Z,99888.50
2022-09-07T07:33:41.536Z,99894.69
2022-09-07T07:36:16.014Z,99892.63
2022-09-07T07:39:03.602Z,99897.13
2022-09-07T07:44:23.436Z,99902.84
2022-09-07T07:46:52.716Z,99898.19
2022-09-07T07:49:21.732Z,99915.00
2022-09-07T07:54:40.602Z,99923.59
2022-09-07T07:57:09.341Z,99919.94
2022-09-07T07:59:40.025Z,99918.59
2022-09-07T08:02:13.487Z,99929.00
2022-09-07T08:04:44.616Z,99919.97
2022-09-07T08:07:13.852Z,99928.34
2022-09-07T08:09:44.085Z,99932.41
2022-09-07T08:12:16.657Z,99934.97
2022-09-07T08:14:48.455Z,99930.75
2022-09-07T08:17:18.871Z,99939.53
2022-09-07T08:19:47.402Z,99932.22
2022-09-07T08:22:15.738Z,99928.50
2022-09-07T08:24:44.167Z,99928.91
2022-09-07T08:27:12.493Z,99932.94
2022-09-07T08:29:40.912Z,99932.94
2022-09-07T08:32:10.602Z,99929.47
2022-09-07T08:34:40.785Z,99937.50
2022-09-07T08:37:09.106Z,99951.06
2022-09-07T08:39:37.685Z,99943.66
2022-09-07T08:42:25.533Z,99949.38
2022-09-07T08:45:07.884Z,99951.88
2022-09-07T08:47:42.798Z,99957.44
2022-09-07T08:50:18.275Z,99954.78
2022-09-07T08:52:52.042Z,99953.56
2022-09-07T08:55:27.896Z,99958.28
2022-09-07T08:58:04.255Z,99958.91
2022-09-07T09:00:36.055Z,99968.75
2022-09-07T09:06:04.511Z,99972.53
2022-09-07T09:08:49.507Z,99966.22
2022-09-07T09:11:25.661Z,99967.13
2022-09-07T09:14:04.107Z,99961.75
2022-09-07T09:16:42.843Z,99963.00
2022-09-07T09:19:51.325Z,99962.50
2022-09-07T09:22:22.826Z,99964.75
2022-09-07T09:24:59.115Z,99967.66
2022-09-07T09:27:27.561Z,99957.50
2022-09-07T09:29:55.931Z,99949.84
2022-09-07T09:32:41.987Z,99963.53
2022-09-07T09:35:23.529Z,99956.22
2022-09-07T09:37:51.945Z,99950.44
2022-09-07T09:40:25.540Z,99957.59
2022-09-07T09:43:03.024Z,99950.06
2022-09-07T09:48:34.526Z,99952.59
2022-09-07T09:54:05.945Z,99942.44
2022-09-07T09:56:40.397Z,99933.59
2022-09-07T10:05:30.489Z,99930.31
2022-09-07T10:07:59.059Z,99927.41
2022-09-07T10:10:29.721Z,99926.34
2022-09-07T10:12:58.503Z,99922.66
2022-09-07T10:15:41.319Z,99918.03
2022-09-07T10:18:21.275Z,99912.88
2022-09-07T10:20:51.181Z,99919.34
2022-09-07T10:23:25.359Z,99916.66
2022-09-07T10:25:53.732Z,99909.06
2022-09-07T10:28:24.880Z,99903.47
2022-09-07T10:31:15.384Z,99899.44
2022-09-07T10:36:49.961Z,99898.63
2022-09-07T10:39:26.125Z,99889.41
2022-09-07T10:42:08.655Z,99881.28
2022-09-07T10:44:54.279Z,99881.09
2022-09-07T10:47:35.163Z,99896.81
2022-09-07T10:50:24.952Z,99888.69
2022-09-07T10:53:39.141Z,99876.03
2022-09-07T10:56:12.935Z,99882.22
2022-09-07T10:59:08.989Z,99876.19
2022-09-07T11:01:54.349Z,99870.63
2022-09-07T11:04:44.329Z,99876.22
2022-09-07T11:07:34.041Z,99876.41
2022-09-07T11:10:18.169Z,99871.75
2022-09-07T11:12:47.429Z,99869.41
2022-09-07T11:15:22.427Z,99874.56
2022-09-07T11:17:56.692Z,99867.75
2022-09-07T11:20:30.958Z,99861.72
2022-09-07T11:23:13.000Z,99861.97
2022-09-07T11:25:52.172Z,99854.88
2022-09-07T11:28:27.404Z,99846.47
2022-09-07T11:31:01.499Z,99852.47
2022-09-07T11:33:35.605Z,99850.81
2022-09-07T11:36:12.193Z,99860.63
2022-09-07T11:39:10.846Z,99857.91
2022-09-07T11:41:48.434Z,99849.94
2022-09-07T11:44:24.827Z,99848.09
2022-09-07T11:46:57.926Z,99848.28
2022-09-07T11:49:27.097Z,99841.28
2022-09-07T11:52:16.103Z,99843.22
2022-09-07T11:54:50.322Z,99842.22
2022-09-07T11:57:50.488Z,99840.69
2022-09-07T12:00:24.799Z,99837.59
2022-09-07T12:03:38.121Z,99835.19
2022-09-07T12:06:37.133Z,99837.59
2022-09-07T12:09:20.312Z,99826.59
2022-09-07T12:12:21.674Z,99817.81
2022-09-07T12:15:06.934Z,99819.16
2022-09-07T12:17:48.531Z,99816.50
2022-09-07T12:20:19.450Z,99811.22
2022-09-07T12:23:04.476Z,99799.94
2022-09-07T12:25:35.194Z,99792.88
2022-09-07T12:28:04.030Z,99802.34
2022-09-07T12:30:57.837Z,99793.88
2022-09-07T12:33:33.018Z,99796.84
2022-09-07T12:36:02.175Z,99795.13
2022-09-07T12:39:24.834Z,99788.00
2022-09-07T12:44:43.980Z,99795.41
2022-09-07T12:47:31.144Z,99791.63
2022-09-07T12:50:14.925Z,99782.81
2022-09-07T12:53:10.077Z,99783.22
2022-09-07T12:59:29.500Z,99787.00
2022-09-07T13:02:12.442Z,99786.13
2022-09-07T13:05:03.176Z,99799.59
2022-09-07T13:08:15.069Z,99799.84
2022-09-07T13:10:45.034Z,99795.56
2022-09-07T13:17:15.968Z,99821.91
2022-09-07T13:20:08.349Z,99808.31
2022-09-07T13:22:56.280Z,99824.00
2022-09-07T13:25:46.897Z,99834.44
2022-09-07T13:28:44.296Z,99828.66
2022-09-07T13:31:43.146Z,99818.97
2022-09-07T13:34:49.844Z,99830.34
2022-09-07T13:37:24.125Z,99836.50
2022-09-07T13:39:56.374Z,99835.91
2022-09-07T13:42:27.453Z,99835.31
2022-09-07T13:44:58.236Z,99835.16
2022-09-07T13:47:40.116Z,99837.13
2022-09-07T13:50:25.078Z,99829.97
2022-09-07T13:53:26.146Z,99831.59
2022-09-07T13:56:04.299Z,99824.44
2022-09-07T13:58:37.721Z,99824.66
2022-09-07T14:01:17.925Z,99828.38
2022-09-07T14:03:52.014Z,99816.28
2022-09-07T14:06:35.033Z,99816.22
2022-09-07T14:09:12.582Z,99817.31
2022-09-07T14:11:44.015Z,99806.84
2022-09-07T14:14:21.950Z,99807.38
2022-09-07T14:16:55.525Z,99809.50
2022-09-07T14:19:27.575Z,99808.50
2022-09-07T14:22:01.888Z,99809.53
2022-09-07T14:24:37.738Z,99802.09
2022-09-07T14:27:17.447Z,99795.53
2022-09-07T14:29:45.821Z,99807.38
2022-09-07T14:32:19.588Z,99801.81
2022-09-07T14:34:48.593Z,99807.94
2022-09-07T14:37:19.219Z,99804.75
2022-09-07T14:39:52.708Z,99804.13
2022-09-07T14:42:24.612Z,99807.13
2022-09-07T14:45:21.017Z,99799.69
2022-09-07T14:47:52.531Z,99795.09
2022-09-07T14:50:24.844Z,99793.44
2022-09-07T14:55:48.089Z,99775.91
2022-09-07T14:58:25.302Z,99783.00
2022-09-07T15:03:57.076Z,99772.00
2022-09-07T15:09:33.389Z,99768.97
2022-09-07T15:12:27.341Z,99759.09
2022-09-07T15:15:13.453Z,99763.22
2022-09-07T15:17:43.368Z,99760.78
2022-09-07T15:20:36.427Z,99757.91
2022-09-07T15:23:06.422Z,99748.28
2022-09-07T15:25:35.831Z,99753.34
2022-09-07T15:28:06.595Z,99742.44
2022-09-07T15:30:35.311Z,99742.53
2022-09-07T15:33:03.876Z,99730.34
2022-09-07T15:35:32.271Z,99724.19
2022-09-07T15:38:01.802Z,99726.91
2022-09-07T15:40:51.314Z,99724.91
2022-09-07T15:43:29.288Z,99718.56
2022-09-07T15:45:57.776Z,99721.28
2022-09-07T15:48:26.341Z,99721.41
2022-09-07T15:51:04.793Z,99724.84
2022-09-07T15:56:24.124Z,99711.56
2022-09-07T15:58:57.882Z,99712.84
2022-09-07T16:04:15.899Z,99705.97
2022-09-07T16:06:44.599Z,99711.94
2022-09-07T16:09:12.904Z,99708.22
2022-09-07T16:11:41.243Z,99708.66
2022-09-07T16:14:12.364Z,99712.31
2022-09-07T16:19:29.113Z,99712.19
2022-09-07T16:21:57.825Z,99715.91
2022-09-07T16:24:27.849Z,99712.44
2022-09-07T16:26:56.480Z,99713.56
2022-09-07T16:29:26.298Z,99708.44
2022-09-07T16:34:43.471Z,99701.34
2022-09-07T16:37:11.873Z,99707.34
2022-09-07T16:39:40.226Z,99709.78
2022-09-07T16:42:09.151Z,99703.38
2022-09-07T16:44:39.056Z,99714.00
2022-09-07T16:47:08.117Z,99713.06
2022-09-07T16:49:36.446Z,99702.19
2022-09-07T16:52:10.580Z,99712.09
2022-09-07T16:54:39.205Z,99706.44
2022-09-07T16:57:07.817Z,99694.38
2022-09-07T16:59:36.212Z,99697.03
2022-09-07T17:02:05.947Z,99693.69
2022-09-07T17:04:34.350Z,99693.56
2022-09-07T17:07:02.699Z,99691.41
2022-09-07T17:09:31.062Z,99698.63
2022-09-07T17:11:59.399Z,99694.41
2022-09-07T17:14:28.294Z,99692.13
2022-09-07T17:16:56.711Z,99702.88
2022-09-07T17:19:30.036Z,99699.63
2022-09-07T17:21:59.918Z,99699.13
2022-09-07T17:24:32.239Z,99706.63
2022-09-07T17:27:01.207Z,99703.38
2022-09-07T17:29:30.792Z,99700.19
2022-09-07T17:34:51.279Z,99697.28
2022-09-07T17:37:19.907Z,99691.38
2022-09-07T17:39:48.353Z,99695.84
2022-09-07T17:42:17.040Z,99692.72
2022-09-07T17:44:45.410Z,99699.69
2022-09-07T17:47:13.974Z,99702.13
2022-09-07T17:49:42.311Z,99699.94
2022-09-07T17:52:12.000Z,99704.41
2022-09-07T17:54:40.614Z,99694.88
2022-09-07T17:57:08.951Z,99711.88
2022-09-07T18:02:25.655Z,99704.06
2022-09-07T18:04:54.079Z,99701.16
2022-09-07T18:07:23.831Z,99704.28
2022-09-07T18:09:52.570Z,99705.13
2022-09-07T18:12:20.969Z,99708.25
2022-09-07T18:14:49.278Z,99704.03
2022-09-07T18:17:17.637Z,99704.63
2022-09-07T18:19:45.923Z,99711.72
2022-09-07T18:22:15.307Z,99710.50
2022-09-07T18:24:45.351Z,99699.66
2022-09-07T18:27:13.756Z,99686.28
2022-09-07T18:29:43.410Z,99683.84
2022-09-07T18:32:11.710Z,99695.00
2022-09-07T18:34:41.449Z,99697.78
2022-09-07T18:37:12.120Z,99700.53
2022-09-07T18:39:41.143Z,99706.91
2022-09-07T18:42:11.313Z,99706.31
2022-09-07T18:47:29.396Z,99716.91
2022-09-07T18:49:58.671Z,99712.69
2022-09-07T18:55:16.352Z,99715.22
2022-09-07T18:57:46.529Z,99710.38
